Terminal Aerodrome Forecast
Issued by NWS

Home | Current Version | Previous Version | Text Only | Print | Product List | Glossary On
Versions: 1 2 3 4 5 6 7 8 9 10 11 12
000
FTUS46 KHNX 251125
TAFFAT
TAF
KFAT 251125Z 2512/2612 29008KT P6SM VCSH BKN040 OVC060
     FM252000 33005KT P6SM -SHRA SCT030 BKN050
      TEMPO 2521/2601 3SM TSRA BR OVC030CB
     FM260300 31010KT P6SM SCT030 BKN050=

USA.gov is the U.S. government's official web portal to all federal, state and local government web resources and services.